sensor_id;sensor_type;location;lat;lon;timestamp;pressure;altitude;pressure_sealevel;temperature;humidity
54512;BME280;40419;47.438;19.026;2023-03-22T00:01:45;99787.06;;;9.20;88.70
54512;BME280;40419;47.438;19.026;2023-03-22T00:04:11;99790.22;;;9.23;88.99
54512;BME280;40419;47.438;19.026;2023-03-22T00:06:39;99785.06;;;9.29;88.96
54512;BME280;40419;47.438;19.026;2023-03-22T00:09:05;99785.25;;;9.27;89.40
54512;BME280;40419;47.438;19.026;2023-03-22T00:11:33;99789.91;;;9.40;88.66
54512;BME280;40419;47.438;19.026;2023-03-22T00:14:01;99787.06;;;9.20;89.96
54512;BME280;40419;47.438;19.026;2023-03-22T00:16:28;99786.91;;;9.28;89.79
54512;BME280;40419;47.438;19.026;2023-03-22T00:18:56;99786.38;;;9.39;90.02
54512;BME280;40419;47.438;19.026;2023-03-22T00:21:26;99775.09;;;9.29;90.02
54512;BME280;40419;47.438;19.026;2023-03-22T00:24:00;99781.09;;;9.25;90.33
54512;BME280;40419;47.438;19.026;2023-03-22T00:26:28;99785.31;;;9.34;91.12
54512;BME280;40419;47.438;19.026;2023-03-22T00:28:53;99776.06;;;9.21;91.45
54512;BME280;40419;47.438;19.026;2023-03-22T00:31:21;99775.09;;;9.29;91.53
54512;BME280;40419;47.438;19.026;2023-03-22T00:33:46;99775.38;;;9.13;92.39
54512;BME280;40419;47.438;19.026;2023-03-22T00:36:16;99777.88;;;9.14;92.46
54512;BME280;40419;47.438;19.026;2023-03-22T00:38:51;99768.50;;;9.10;92.97
54512;BME280;40419;47.438;19.026;2023-03-22T00:41:23;99773.50;;;9.13;93.52
54512;BME280;40419;47.438;19.026;2023-03-22T00:43:51;99776.97;;;9.07;93.91
54512;BME280;40419;47.438;19.026;2023-03-22T00:46:19;99775.84;;;8.95;94.28
54512;BME280;40419;47.438;19.026;2023-03-22T00:48:45;99774.56;;;8.91;94.39
54512;BME280;40419;47.438;19.026;2023-03-22T00:51:14;99775.09;;;8.79;95.01
54512;BME280;40419;47.438;19.026;2023-03-22T00:53:44;99772.88;;;8.68;95.89
54512;BME280;40419;47.438;19.026;2023-03-22T00:56:13;99768.41;;;8.75;95.89
54512;BME280;40419;47.438;19.026;2023-03-22T00:59:01;99771.88;;;8.69;96.46
54512;BME280;40419;47.438;19.026;2023-03-22T01:01:34;99783.97;;;8.73;96.98
54512;BME280;40419;47.438;19.026;2023-03-22T01:04:00;99771.34;;;8.59;97.76
54512;BME280;40419;47.438;19.026;2023-03-22T01:06:27;99775.72;;;8.60;97.90
54512;BME280;40419;47.438;19.026;2023-03-22T01:08:52;99774.44;;;8.56;98.12
54512;BME280;40419;47.438;19.026;2023-03-22T01:11:22;99767.06;;;8.64;97.90
54512;BME280;40419;47.438;19.026;2023-03-22T01:13:48;99776.56;;;8.60;97.79
54512;BME280;40419;47.438;19.026;2023-03-22T01:16:17;99760.69;;;8.50;98.88
54512;BME280;40419;47.438;19.026;2023-03-22T01:18:42;99768.16;;;8.48;98.18
54512;BME280;40419;47.438;19.026;2023-03-22T01:21:09;99759.00;;;8.49;98.45
54512;BME280;40419;47.438;19.026;2023-03-22T01:23:38;99765.91;;;8.52;98.18
54512;BME280;40419;47.438;19.026;2023-03-22T01:26:04;99758.44;;;8.39;99.59
54512;BME280;40419;47.438;19.026;2023-03-22T01:28:34;99761.47;;;8.29;100.00
54512;BME280;40419;47.438;19.026;2023-03-22T01:31:09;99758.63;;;8.52;99.28
54512;BME280;40419;47.438;19.026;2023-03-22T01:33:35;99751.31;;;8.46;99.75
54512;BME280;40419;47.438;19.026;2023-03-22T01:36:08;99753.69;;;8.56;99.29
54512;BME280;40419;47.438;19.026;2023-03-22T01:38:34;99751.09;;;8.69;98.62
54512;BME280;40419;47.438;19.026;2023-03-22T01:41:00;99740.50;;;8.68;98.46
54512;BME280;40419;47.438;19.026;2023-03-22T01:43:30;99755.53;;;8.56;99.94
54512;BME280;40419;47.438;19.026;2023-03-22T01:46:01;99749.81;;;8.44;100.00
54512;BME280;40419;47.438;19.026;2023-03-22T01:48:36;99752.66;;;8.21;100.00
54512;BME280;40419;47.438;19.026;2023-03-22T01:51:18;99752.06;;;8.25;100.00
54512;BME280;40419;47.438;19.026;2023-03-22T01:54:16;99757.28;;;8.27;100.00
54512;BME280;40419;47.438;19.026;2023-03-22T01:56:45;99753.97;;;8.10;100.00
54512;BME280;40419;47.438;19.026;2023-03-22T01:59:25;99757.28;;;8.27;100.00
54512;BME280;40419;47.438;19.026;2023-03-22T02:02:14;99757.03;;;8.22;100.00
54512;BME280;40419;47.438;19.026;2023-03-22T02:04:50;99759.56;;;8.08;100.00
54512;BME280;40419;47.438;19.026;2023-03-22T02:07:27;99757.47;;;8.25;100.00
54512;BME280;40419;47.438;19.026;2023-03-22T02:09:55;99763.09;;;8.09;100.00
54512;BME280;40419;47.438;19.026;2023-03-22T02:15:36;99751.38;;;8.02;100.00
54512;BME280;40419;47.438;19.026;2023-03-22T02:34:55;99764.69;;;8.03;100.00
54512;BME280;40419;47.438;19.026;2023-03-22T02:43:00;99766.19;;;7.91;100.00
54512;BME280;40419;47.438;19.026;2023-03-22T02:50:54;99784.22;;;7.90;100.00
54512;BME280;40419;47.438;19.026;2023-03-22T02:55:59;99770.25;;;8.02;100.00
54512;BME280;40419;47.438;19.026;2023-03-22T02:58:38;99779.56;;;7.99;100.00
54512;BME280;40419;47.438;19.026;2023-03-22T03:01:23;99777.13;;;8.04;100.00
54512;BME280;40419;47.438;19.026;2023-03-22T03:03:58;99779.94;;;7.96;100.00
54512;BME280;40419;47.438;19.026;2023-03-22T03:06:36;99776.13;;;8.05;100.00
54512;BME280;40419;47.438;19.026;2023-03-22T03:09:07;99784.09;;;8.13;100.00
54512;BME280;40419;47.438;19.026;2023-03-22T03:11:33;99776.84;;;8.14;100.00
54512;BME280;40419;47.438;19.026;2023-03-22T03:13:59;99773.28;;;8.28;100.00
54512;BME280;40419;47.438;19.026;2023-03-22T03:16:29;99777.34;;;8.39;100.00
54512;BME280;40419;47.438;19.026;2023-03-22T03:19:16;99782.16;;;8.07;100.00
54512;BME280;40419;47.438;19.026;2023-03-22T03:32:13;99767.16;;;8.20;100.00
54512;BME280;40419;47.438;19.026;2023-03-22T03:35:11;99770.03;;;8.18;100.00
54512;BME280;40419;47.438;19.026;2023-03-22T03:38:07;99774.13;;;8.29;100.00
54512;BME280;40419;47.438;19.026;2023-03-22T03:40:44;99773.22;;;8.22;100.00
54512;BME280;40419;47.438;19.026;2023-03-22T03:43:12;99782.50;;;8.19;100.00
54512;BME280;40419;47.438;19.026;2023-03-22T03:45:39;99786.81;;;7.98;100.00
54512;BME280;40419;47.438;19.026;2023-03-22T03:48:17;99787.91;;;8.19;100.00
54512;BME280;40419;47.438;19.026;2023-03-22T03:50:47;99790.34;;;8.14;100.00
54512;BME280;40419;47.438;19.026;2023-03-22T03:53:15;99794.69;;;8.15;100.00
54512;BME280;40419;47.438;19.026;2023-03-22T03:55:43;99792.38;;;8.12;100.00
54512;BME280;40419;47.438;19.026;2023-03-22T03:58:09;99797.25;;;7.87;100.00
54512;BME280;40419;47.438;19.026;2023-03-22T04:00:40;99795.84;;;7.91;100.00
54512;BME280;40419;47.438;19.026;2023-03-22T04:03:25;99789.91;;;7.80;100.00
54512;BME280;40419;47.438;19.026;2023-03-22T04:06:14;99786.84;;;7.84;100.00
54512;BME280;40419;47.438;19.026;2023-03-22T04:08:44;99784.88;;;7.77;100.00
54512;BME280;40419;47.438;19.026;2023-03-22T04:11:12;99789.50;;;8.13;100.00
54512;BME280;40419;47.438;19.026;2023-03-22T04:13:39;99800.22;;;7.92;100.00
54512;BME280;40419;47.438;19.026;2023-03-22T04:16:10;99787.22;;;7.80;100.00
54512;BME280;40419;47.438;19.026;2023-03-22T04:18:37;99778.66;;;7.92;100.00
54512;BME280;40419;47.438;19.026;2023-03-22T04:21:06;99781.78;;;7.95;100.00
54512;BME280;40419;47.438;19.026;2023-03-22T04:23:40;99795.94;;;8.12;100.00
54512;BME280;40419;47.438;19.026;2023-03-22T04:26:06;99796.13;;;8.11;100.00
54512;BME280;40419;47.438;19.026;2023-03-22T04:28:44;99788.69;;;7.98;100.00
54512;BME280;40419;47.438;19.026;2023-03-22T04:31:13;99794.25;;;7.96;100.00
54512;BME280;40419;47.438;19.026;2023-03-22T04:33:58;99796.69;;;7.91;100.00
54512;BME280;40419;47.438;19.026;2023-03-22T04:36:51;99782.66;;;7.96;100.00
54512;BME280;40419;47.438;19.026;2023-03-22T04:39:23;99793.31;;;8.04;100.00
54512;BME280;40419;47.438;19.026;2023-03-22T04:41:58;99795.19;;;8.04;100.00
54512;BME280;40419;47.438;19.026;2023-03-22T04:44:25;99792.56;;;8.10;100.00
54512;BME280;40419;47.438;19.026;2023-03-22T04:46:51;99795.81;;;8.06;100.00
54512;BME280;40419;47.438;19.026;2023-03-22T04:49:20;99786.44;;;8.02;100.00
54512;BME280;40419;47.438;19.026;2023-03-22T04:51:46;99795.19;;;7.89;100.00
54512;BME280;40419;47.438;19.026;2023-03-22T04:54:24;99805.78;;;7.90;100.00
54512;BME280;40419;47.438;19.026;2023-03-22T04:56:50;99802.97;;;7.98;100.00
54512;BME280;40419;47.438;19.026;2023-03-22T04:59:17;99812.50;;;7.79;100.00
54512;BME280;40419;47.438;19.026;2023-03-22T05:01:49;99814.88;;;7.74;100.00
54512;BME280;40419;47.438;19.026;2023-03-22T05:04:20;99809.25;;;7.84;100.00
54512;BME280;40419;47.438;19.026;2023-03-22T05:06:50;99818.44;;;7.90;100.00
54512;BME280;40419;47.438;19.026;2023-03-22T05:09:23;99807.28;;;7.93;100.00
54512;BME280;40419;47.438;19.026;2023-03-22T05:11:53;99821.13;;;8.05;100.00
54512;BME280;40419;47.438;19.026;2023-03-22T05:14:47;99822.53;;;8.15;100.00
54512;BME280;40419;47.438;19.026;2023-03-22T05:17:16;99820.97;;;8.43;100.00
54512;BME280;40419;47.438;19.026;2023-03-22T05:19:43;99819.28;;;8.42;100.00
54512;BME280;40419;47.438;19.026;2023-03-22T05:22:13;99818.59;;;8.18;100.00
54512;BME280;40419;47.438;19.026;2023-03-22T05:24:47;99809.28;;;8.72;100.00
54512;BME280;40419;47.438;19.026;2023-03-22T05:27:20;99821.56;;;8.96;100.00
54512;BME280;40419;47.438;19.026;2023-03-22T05:30:07;99831.25;;;8.69;100.00
54512;BME280;40419;47.438;19.026;2023-03-22T05:32:49;99826.22;;;8.44;100.00
54512;BME280;40419;47.438;19.026;2023-03-22T05:35:20;99820.69;;;8.38;100.00
54512;BME280;40419;47.438;19.026;2023-03-22T05:37:50;99827.41;;;8.78;100.00
54512;BME280;40419;47.438;19.026;2023-03-22T05:40:19;99826.38;;;9.01;100.00
54512;BME280;40419;47.438;19.026;2023-03-22T05:42:47;99832.16;;;8.98;100.00
54512;BME280;40419;47.438;19.026;2023-03-22T05:45:18;99835.13;;;8.81;100.00
54512;BME280;40419;47.438;19.026;2023-03-22T05:47:50;99836.13;;;8.59;100.00
54512;BME280;40419;47.438;19.026;2023-03-22T05:50:23;99824.75;;;8.63;100.00
54512;BME280;40419;47.438;19.026;2023-03-22T05:52:49;99830.94;;;9.22;100.00
54512;BME280;40419;47.438;19.026;2023-03-22T05:55:32;99827.53;;;9.63;100.00
54512;BME280;40419;47.438;19.026;2023-03-22T05:58:04;99835.22;;;9.66;100.00
54512;BME280;40419;47.438;19.026;2023-03-22T06:00:37;99838.38;;;9.70;97.76
54512;BME280;40419;47.438;19.026;2023-03-22T06:03:21;99846.75;;;9.25;98.81
54512;BME280;40419;47.438;19.026;2023-03-22T06:06:10;99852.03;;;9.33;100.00
54512;BME280;40419;47.438;19.026;2023-03-22T06:08:51;99848.38;;;9.48;100.00
54512;BME280;40419;47.438;19.026;2023-03-22T06:11:17;99853.06;;;9.61;99.40
54512;BME280;40419;47.438;19.026;2023-03-22T06:13:45;99856.50;;;9.48;99.14
54512;BME280;40419;47.438;19.026;2023-03-22T06:16:13;99857.53;;;9.47;99.60
54512;BME280;40419;47.438;19.026;2023-03-22T06:18:40;99859.25;;;9.54;98.97
54512;BME280;40419;47.438;19.026;2023-03-22T06:21:13;99858.88;;;9.57;99.59
54512;BME280;40419;47.438;19.026;2023-03-22T06:23:40;99862.59;;;9.56;99.75
54512;BME280;40419;47.438;19.026;2023-03-22T06:26:07;99860.22;;;9.75;98.17
54512;BME280;40419;47.438;19.026;2023-03-22T06:28:39;99858.81;;;9.79;98.43
54512;BME280;40419;47.438;19.026;2023-03-22T06:31:07;99859.44;;;9.81;98.85
54512;BME280;40419;47.438;19.026;2023-03-22T06:33:47;99861.00;;;9.97;96.10
54512;BME280;40419;47.438;19.026;2023-03-22T06:36:28;99870.31;;;10.23;97.07
54512;BME280;40419;47.438;19.026;2023-03-22T06:39:07;99872.38;;;10.21;96.71
54512;BME280;40419;47.438;19.026;2023-03-22T06:41:37;99871.28;;;10.08;95.44
54512;BME280;40419;47.438;19.026;2023-03-22T06:44:05;99872.97;;;10.16;95.59
54512;BME280;40419;47.438;19.026;2023-03-22T06:46:54;99877.34;;;10.17;95.70
54512;BME280;40419;47.438;19.026;2023-03-22T06:49:44;99873.97;;;10.43;96.68
54512;BME280;40419;47.438;19.026;2023-03-22T06:52:25;99867.19;;;10.26;93.79
54512;BME280;40419;47.438;19.026;2023-03-22T06:54:54;99870.50;;;10.21;95.08
54512;BME280;40419;47.438;19.026;2023-03-22T06:57:23;99883.53;;;10.39;95.60
54512;BME280;40419;47.438;19.026;2023-03-22T06:59:53;99883.84;;;10.29;93.48
54512;BME280;40419;47.438;19.026;2023-03-22T07:02:23;99877.69;;;10.36;91.61
54512;BME280;40419;47.438;19.026;2023-03-22T07:05:15;99878.38;;;10.51;92.72
54512;BME280;40419;47.438;19.026;2023-03-22T07:07:46;99880.91;;;10.59;92.63
54512;BME280;40419;47.438;19.026;2023-03-22T07:10:14;99876.75;;;10.22;92.40
54512;BME280;40419;47.438;19.026;2023-03-22T07:12:42;99894.75;;;10.36;90.93
54512;BME280;40419;47.438;19.026;2023-03-22T07:15:12;99882.50;;;10.40;91.03
54512;BME280;40419;47.438;19.026;2023-03-22T07:17:47;99893.41;;;10.54;90.92
54512;BME280;40419;47.438;19.026;2023-03-22T07:20:13;99894.88;;;10.63;90.48
54512;BME280;40419;47.438;19.026;2023-03-22T07:22:42;99898.41;;;10.63;89.59
54512;BME280;40419;47.438;19.026;2023-03-22T07:25:08;99896.97;;;10.68;90.21
54512;BME280;40419;47.438;19.026;2023-03-22T07:27:38;99896.41;;;10.86;89.54
54512;BME280;40419;47.438;19.026;2023-03-22T07:30:07;99886.25;;;11.01;89.12
54512;BME280;40419;47.438;19.026;2023-03-22T07:32:38;99884.53;;;10.80;88.78
54512;BME280;40419;47.438;19.026;2023-03-22T07:35:09;99881.66;;;11.22;88.45
54512;BME280;40419;47.438;19.026;2023-03-22T07:37:35;99896.09;;;11.42;87.68
54512;BME280;40419;47.438;19.026;2023-03-22T07:40:06;99898.81;;;11.49;87.36
54512;BME280;40419;47.438;19.026;2023-03-22T07:42:31;99901.50;;;11.62;86.01
54512;BME280;40419;47.438;19.026;2023-03-22T07:45:22;99894.81;;;11.18;86.80
54512;BME280;40419;47.438;19.026;2023-03-22T07:48:15;99879.59;;;11.77;85.89
54512;BME280;40419;47.438;19.026;2023-03-22T07:51:01;99882.28;;;12.11;80.66
54512;BME280;40419;47.438;19.026;2023-03-22T07:53:30;99892.53;;;11.88;80.52
54512;BME280;40419;47.438;19.026;2023-03-22T07:55:56;99895.91;;;11.97;80.08
54512;BME280;40419;47.438;19.026;2023-03-22T07:58:23;99898.19;;;11.87;81.69
54512;BME280;40419;47.438;19.026;2023-03-22T08:00:51;99892.97;;;11.65;82.69
54512;BME280;40419;47.438;19.026;2023-03-22T08:03:38;99895.03;;;11.90;79.99
54512;BME280;40419;47.438;19.026;2023-03-22T08:06:18;99884.13;;;12.30;80.43
54512;BME280;40419;47.438;19.026;2023-03-22T08:08:48;99894.63;;;12.07;78.35
54512;BME280;40419;47.438;19.026;2023-03-22T08:11:16;99895.25;;;12.15;77.68
54512;BME280;40419;47.438;19.026;2023-03-22T08:13:41;99889.75;;;12.29;78.30
54512;BME280;40419;47.438;19.026;2023-03-22T08:16:09;99892.28;;;12.23;77.46
54512;BME280;40419;47.438;19.026;2023-03-22T08:18:34;99896.84;;;12.36;77.97
54512;BME280;40419;47.438;19.026;2023-03-22T08:21:08;99876.13;;;12.49;77.63
54512;BME280;40419;47.438;19.026;2023-03-22T08:23:34;99875.97;;;12.30;78.32
54512;BME280;40419;47.438;19.026;2023-03-22T08:26:21;99886.78;;;12.50;78.20
54512;BME280;40419;47.438;19.026;2023-03-22T08:28:54;99888.44;;;12.51;77.58
54512;BME280;40419;47.438;19.026;2023-03-22T08:31:22;99888.28;;;12.39;77.81
54512;BME280;40419;47.438;19.026;2023-03-22T08:33:50;99884.88;;;12.51;77.95
54512;BME280;40419;47.438;19.026;2023-03-22T08:36:19;99900.38;;;12.89;77.02
54512;BME280;40419;47.438;19.026;2023-03-22T08:38:55;99898.53;;;12.83;76.14
54512;BME280;40419;47.438;19.026;2023-03-22T08:41:31;99897.78;;;12.69;78.02
54512;BME280;40419;47.438;19.026;2023-03-22T08:43:57;99903.94;;;12.89;77.49
54512;BME280;40419;47.438;19.026;2023-03-22T08:46:26;99909.81;;;12.86;75.29
54512;BME280;40419;47.438;19.026;2023-03-22T08:48:58;99901.72;;;13.11;72.98
54512;BME280;40419;47.438;19.026;2023-03-22T08:51:31;99904.16;;;12.88;72.79
54512;BME280;40419;47.438;19.026;2023-03-22T08:54:17;99902.78;;;12.72;74.74
54512;BME280;40419;47.438;19.026;2023-03-22T08:57:03;99906.78;;;13.01;75.33
54512;BME280;40419;47.438;19.026;2023-03-22T08:59:42;99906.44;;;12.91;73.95
54512;BME280;40419;47.438;19.026;2023-03-22T09:02:28;99903.88;;;12.57;75.57
54512;BME280;40419;47.438;19.026;2023-03-22T09:04:55;99900.88;;;12.72;75.47
54512;BME280;40419;47.438;19.026;2023-03-22T09:07:26;99892.34;;;13.07;75.24
54512;BME280;40419;47.438;19.026;2023-03-22T09:10:22;99884.06;;;13.27;73.50
54512;BME280;40419;47.438;19.026;2023-03-22T09:12:51;99887.16;;;13.31;75.16
54512;BME280;40419;47.438;19.026;2023-03-22T09:15:18;99885.09;;;13.26;73.43
54512;BME280;40419;47.438;19.026;2023-03-22T09:18:02;99895.59;;;13.23;75.25
54512;BME280;40419;47.438;19.026;2023-03-22T09:20:30;99886.69;;;13.09;75.17
54512;BME280;40419;47.438;19.026;2023-03-22T09:22:56;99897.91;;;13.51;76.68
54512;BME280;40419;47.438;19.026;2023-03-22T09:25:24;99898.81;;;13.45;72.54
54512;BME280;40419;47.438;19.026;2023-03-22T09:27:52;99894.16;;;13.52;70.75
54512;BME280;40419;47.438;19.026;2023-03-22T09:30:26;99887.03;;;13.76;72.43
54512;BME280;40419;47.438;19.026;2023-03-22T09:32:52;99895.59;;;13.55;70.96
54512;BME280;40419;47.438;19.026;2023-03-22T09:35:21;99892.59;;;13.63;72.47
54512;BME280;40419;47.438;19.026;2023-03-22T09:37:55;99886.00;;;13.77;71.22
54512;BME280;40419;47.438;19.026;2023-03-22T09:40:31;99882.50;;;13.70;69.81
54512;BME280;40419;47.438;19.026;2023-03-22T09:43:02;99879.06;;;13.56;70.61
54512;BME280;40419;47.438;19.026;2023-03-22T09:45:34;99875.97;;;13.53;74.00
54512;BME280;40419;47.438;19.026;2023-03-22T09:48:29;99879.50;;;13.53;72.02
54512;BME280;40419;47.438;19.026;2023-03-22T09:50:56;99878.69;;;13.53;72.70
54512;BME280;40419;47.438;19.026;2023-03-22T09:53:26;99879.53;;;13.72;72.14
54512;BME280;40419;47.438;19.026;2023-03-22T10:01:13;99878.50;;;13.47;73.02
54512;BME280;40419;47.438;19.026;2023-03-22T10:06:26;99877.91;;;13.45;74.38
54512;BME280;40419;47.438;19.026;2023-03-22T10:16:34;99876.88;;;13.40;74.40
54512;BME280;40419;47.438;19.026;2023-03-22T10:19:19;99875.44;;;13.62;72.64
54512;BME280;40419;47.438;19.026;2023-03-22T10:21:50;99873.88;;;13.73;72.63
54512;BME280;40419;47.438;19.026;2023-03-22T10:24:24;99872.59;;;13.51;74.26
54512;BME280;40419;47.438;19.026;2023-03-22T10:26:55;99868.63;;;13.53;74.19
54512;BME280;40419;47.438;19.026;2023-03-22T10:29:41;99867.50;;;13.61;73.52
54512;BME280;40419;47.438;19.026;2023-03-22T10:35:04;99875.09;;;13.20;75.76
54512;BME280;40419;47.438;19.026;2023-03-22T10:37:34;99874.59;;;13.37;75.97
54512;BME280;40419;47.438;19.026;2023-03-22T10:40:03;99866.91;;;13.27;75.74
54512;BME280;40419;47.438;19.026;2023-03-22T10:42:36;99876.91;;;13.33;75.87
54512;BME280;40419;47.438;19.026;2023-03-22T10:45:12;99864.38;;;13.32;76.05
54512;BME280;40419;47.438;19.026;2023-03-22T10:47:48;99859.09;;;13.12;76.71
54512;BME280;40419;47.438;19.026;2023-03-22T10:50:24;99862.41;;;13.14;75.98
54512;BME280;40419;47.438;19.026;2023-03-22T10:55:40;99864.38;;;13.00;77.35
54512;BME280;40419;47.438;19.026;2023-03-22T10:58:15;99865.25;;;12.94;77.38
54512;BME280;40419;47.438;19.026;2023-03-22T11:00:49;99864.38;;;13.00;77.12
54512;BME280;40419;47.438;19.026;2023-03-22T11:05:59;99853.66;;;13.05;77.97
54512;BME280;40419;47.438;19.026;2023-03-22T11:08:25;99850.56;;;13.02;78.16
54512;BME280;40419;47.438;19.026;2023-03-22T11:10:55;99854.53;;;13.06;78.67
54512;BME280;40419;47.438;19.026;2023-03-22T11:13:26;99854.72;;;13.04;78.62
54512;BME280;40419;47.438;19.026;2023-03-22T11:16:01;99845.38;;;12.93;78.38
54512;BME280;40419;47.438;19.026;2023-03-22T11:18:31;99840.56;;;12.96;77.88
54512;BME280;40419;47.438;19.026;2023-03-22T11:21:09;99833.63;;;13.00;77.37
54512;BME280;40419;47.438;19.026;2023-03-22T11:23:40;99837.50;;;12.85;77.23
54512;BME280;40419;47.438;19.026;2023-03-22T11:26:11;99823.19;;;12.97;77.28
54512;BME280;40419;47.438;19.026;2023-03-22T11:28:49;99833.41;;;13.01;77.86
54512;BME280;40419;47.438;19.026;2023-03-22T11:31:20;99825.41;;;12.81;75.16
54512;BME280;40419;47.438;19.026;2023-03-22T11:36:19;99825.97;;;12.90;75.34
54512;BME280;40419;47.438;19.026;2023-03-22T11:38:57;99820.75;;;12.88;77.11
54512;BME280;40419;47.438;19.026;2023-03-22T11:41:39;99819.81;;;13.01;76.91
54512;BME280;40419;47.438;19.026;2023-03-22T11:44:14;99822.06;;;13.11;76.46
54512;BME280;40419;47.438;19.026;2023-03-22T11:46:56;99812.25;;;13.10;76.62
54512;BME280;40419;47.438;19.026;2023-03-22T11:49:30;99817.00;;;13.15;77.40
54512;BME280;40419;47.438;19.026;2023-03-22T11:52:07;99802.53;;;13.21;76.76
54512;BME280;40419;47.438;19.026;2023-03-22T11:54:34;99801.47;;;13.22;76.58
54512;BME280;40419;47.438;19.026;2023-03-22T11:57:05;99809.47;;;13.49;76.45
54512;BME280;40419;47.438;19.026;2023-03-22T11:59:46;99805.53;;;13.63;75.04
54512;BME280;40419;47.438;19.026;2023-03-22T12:02:34;99812.13;;;13.74;74.92
54512;BME280;40419;47.438;19.026;2023-03-22T12:05:24;99808.66;;;13.67;73.80
54512;BME280;40419;47.438;19.026;2023-03-22T12:08:01;99806.91;;;13.72;71.67
54512;BME280;40419;47.438;19.026;2023-03-22T12:10:35;99812.22;;;13.86;73.29
54512;BME280;40419;47.438;19.026;2023-03-22T12:15:47;99816.41;;;14.25;70.59
54512;BME280;40419;47.438;19.026;2023-03-22T12:18:32;99814.41;;;14.32;70.47
54512;BME280;40419;47.438;19.026;2023-03-22T12:21:00;99807.97;;;14.45;71.13
54512;BME280;40419;47.438;19.026;2023-03-22T12:23:34;99809.84;;;14.63;69.71
54512;BME280;40419;47.438;19.026;2023-03-22T12:28:59;99806.47;;;14.80;68.28
54512;BME280;40419;47.438;19.026;2023-03-22T12:34:18;99802.56;;;14.76;68.66
54512;BME280;40419;47.438;19.026;2023-03-22T12:36:55;99801.50;;;14.88;65.91
54512;BME280;40419;47.438;19.026;2023-03-22T12:39:39;99805.63;;;14.79;67.53
54512;BME280;40419;47.438;19.026;2023-03-22T12:42:28;99803.72;;;14.68;65.94
54512;BME280;40419;47.438;19.026;2023-03-22T12:45:04;99797.34;;;14.74;65.35
54512;BME280;40419;47.438;19.026;2023-03-22T12:47:39;99801.63;;;14.82;66.59
54512;BME280;40419;47.438;19.026;2023-03-22T12:50:15;99797.38;;;14.86;66.98
54512;BME280;40419;47.438;19.026;2023-03-22T12:52:50;99797.75;;;15.01;63.53
54512;BME280;40419;47.438;19.026;2023-03-22T12:57:52;99790.88;;;14.99;64.45
54512;BME280;40419;47.438;19.026;2023-03-22T13:00:33;99784.94;;;15.02;64.88
54512;BME280;40419;47.438;19.026;2023-03-22T13:03:06;99781.53;;;15.18;64.19
54512;BME280;40419;47.438;19.026;2023-03-22T13:05:38;99779.66;;;15.19;65.68
54512;BME280;40419;47.438;19.026;2023-03-22T13:08:06;99774.78;;;15.21;63.53
54512;BME280;40419;47.438;19.026;2023-03-22T13:24:18;99763.06;;;15.80;56.38
54512;BME280;40419;47.438;19.026;2023-03-22T13:26:52;99766.03;;;15.66;54.75
54512;BME280;40419;47.438;19.026;2023-03-22T13:29:35;99748.13;;;15.47;53.95
54512;BME280;40419;47.438;19.026;2023-03-22T13:34:51;99752.03;;;15.63;51.64
54512;BME280;40419;47.438;19.026;2023-03-22T13:37:44;99754.28;;;15.66;50.83
54512;BME280;40419;47.438;19.026;2023-03-22T13:40:34;99744.78;;;15.80;53.30
54512;BME280;40419;47.438;19.026;2023-03-22T13:59:09;99737.44;;;15.69;53.16
54512;BME280;40419;47.438;19.026;2023-03-22T14:01:42;99729.34;;;15.74;53.61
54512;BME280;40419;47.438;19.026;2023-03-22T14:04:15;99723.56;;;15.58;53.48
54512;BME280;40419;47.438;19.026;2023-03-22T14:07:07;99724.28;;;15.54;55.55
54512;BME280;40419;47.438;19.026;2023-03-22T14:09:51;99726.19;;;15.41;53.96
54512;BME280;40419;47.438;19.026;2023-03-22T14:15:21;99722.75;;;15.46;54.63
54512;BME280;40419;47.438;19.026;2023-03-22T14:20:35;99720.25;;;15.33;56.29
54512;BME280;40419;47.438;19.026;2023-03-22T14:23:13;99714.09;;;15.49;55.47
54512;BME280;40419;47.438;19.026;2023-03-22T14:25:47;99717.28;;;15.34;56.24
54512;BME280;40419;47.438;19.026;2023-03-22T14:28:21;99707.69;;;15.32;57.31
54512;BME280;40419;47.438;19.026;2023-03-22T14:30:57;99711.47;;;15.42;57.45
54512;BME280;40419;47.438;19.026;2023-03-22T14:33:28;99707.81;;;15.37;57.71
54512;BME280;40419;47.438;19.026;2023-03-22T14:36:05;99709.78;;;15.53;57.73
54512;BME280;40419;47.438;19.026;2023-03-22T14:38:39;99706.84;;;15.31;57.63
54512;BME280;40419;47.438;19.026;2023-03-22T14:43:40;99719.31;;;15.39;55.75
54512;BME280;40419;47.438;19.026;2023-03-22T14:48:40;99709.94;;;15.23;58.14
54512;BME280;40419;47.438;19.026;2023-03-22T14:51:11;99706.28;;;15.17;58.56
54512;BME280;40419;47.438;19.026;2023-03-22T14:53:40;99700.81;;;15.17;58.02
54512;BME280;40419;47.438;19.026;2023-03-22T14:56:14;99700.56;;;15.07;60.42
54512;BME280;40419;47.438;19.026;2023-03-22T14:58:43;99691.66;;;15.00;61.51
54512;BME280;40419;47.438;19.026;2023-03-22T15:01:14;99692.88;;;15.04;60.78
54512;BME280;40419;47.438;19.026;2023-03-22T15:03:48;99696.53;;;15.10;59.40
54512;BME280;40419;47.438;19.026;2023-03-22T15:06:19;99691.44;;;15.01;60.54
54512;BME280;40419;47.438;19.026;2023-03-22T15:08:47;99693.56;;;14.99;60.08
54512;BME280;40419;47.438;19.026;2023-03-22T15:11:13;99692.41;;;15.07;60.53
54512;BME280;40419;47.438;19.026;2023-03-22T15:13:39;99694.75;;;15.03;61.16
54512;BME280;40419;47.438;19.026;2023-03-22T15:16:15;99681.00;;;14.98;60.91
54512;BME280;40419;47.438;19.026;2023-03-22T15:18:45;99680.19;;;14.98;61.16
54512;BME280;40419;47.438;19.026;2023-03-22T15:21:14;99683.25;;;14.89;62.01
54512;BME280;40419;47.438;19.026;2023-03-22T15:23:53;99674.34;;;14.82;62.24
54512;BME280;40419;47.438;19.026;2023-03-22T15:26:26;99668.31;;;14.80;62.26
54512;BME280;40419;47.438;19.026;2023-03-22T15:28:59;99666.06;;;14.77;60.94